createdAt,value
2019-03-13T00:00:45.605Z,46.50
2019-03-13T00:01:23.669Z,46.50
2019-03-13T00:01:59.911Z,46.40
2019-03-13T00:02:34.409Z,46.20
2019-03-13T00:03:09.295Z,46.20
2019-03-13T00:03:43.856Z,46.20
2019-03-13T00:04:18.423Z,46.30
2019-03-13T00:04:53.162Z,46.50
2019-03-13T00:05:27.916Z,46.80
2019-03-13T00:06:02.474Z,46.50
2019-03-13T00:06:36.990Z,46.50
2019-03-13T00:07:11.621Z,46.30
2019-03-13T00:07:46.130Z,46.20
2019-03-13T00:08:20.685Z,46.20
2019-03-13T00:08:55.172Z,46.20
2019-03-13T00:09:29.691Z,46.20
2019-03-13T00:10:06.717Z,46.00
2019-03-13T00:10:41.384Z,45.70
2019-03-13T00:11:15.871Z,45.60
2019-03-13T00:11:50.440Z,45.60
2019-03-13T00:12:25.187Z,45.70
2019-03-13T00:12:59.740Z,45.90
2019-03-13T00:13:34.248Z,45.90
2019-03-13T00:14:08.763Z,46.10
2019-03-13T00:14:43.410Z,46.40
2019-03-13T00:15:17.949Z,46.40
2019-03-13T00:15:52.506Z,46.20
2019-03-13T00:16:27.082Z,46.70
2019-03-13T00:17:01.642Z,46.00
2019-03-13T00:17:36.138Z,46.00
2019-03-13T00:18:10.632Z,46.10
2019-03-13T00:18:45.126Z,46.00
2019-03-13T00:19:19.985Z,46.20
2019-03-13T00:19:56.816Z,46.40
2019-03-13T00:20:31.383Z,46.40
2019-03-13T00:21:05.955Z,46.30
2019-03-13T00:21:40.452Z,46.20
2019-03-13T00:22:14.958Z,45.90
2019-03-13T00:22:49.566Z,46.00
2019-03-13T00:23:24.045Z,46.10
2019-03-13T00:23:58.617Z,46.20
2019-03-13T00:24:33.202Z,46.10
2019-03-13T00:25:08.454Z,46.20
2019-03-13T00:25:43.019Z,46.50
2019-03-13T00:26:17.589Z,46.70
2019-03-13T00:26:52.101Z,46.80
2019-03-13T00:27:26.583Z,46.90
2019-03-13T00:28:01.081Z,46.80
2019-03-13T00:28:35.646Z,46.70
2019-03-13T00:29:10.153Z,46.70
2019-03-13T00:29:44.785Z,46.50
2019-03-13T00:30:19.361Z,46.50
2019-03-13T00:30:54.000Z,46.70
2019-03-13T00:31:28.509Z,46.70
2019-03-13T00:32:03.849Z,47.40
2019-03-13T00:32:38.369Z,46.80
2019-03-13T00:33:12.932Z,47.00
2019-03-13T00:33:47.436Z,46.80
2019-03-13T00:34:21.947Z,46.90
2019-03-13T00:34:56.451Z,46.80
2019-03-13T00:35:30.954Z,46.90
2019-03-13T00:36:05.442Z,47.00
2019-03-13T00:36:39.958Z,46.80
2019-03-13T00:37:14.453Z,47.00
2019-03-13T00:37:48.954Z,46.90
2019-03-13T00:38:23.941Z,46.90
2019-03-13T00:38:58.465Z,46.80
2019-03-13T00:39:33.113Z,46.50
2019-03-13T00:40:10.245Z,46.40
2019-03-13T00:40:45.159Z,46.40
2019-03-13T00:41:20.044Z,46.50
2019-03-13T00:41:54.538Z,46.50
2019-03-13T00:42:29.052Z,46.60
2019-03-13T00:43:03.607Z,46.50
2019-03-13T00:43:38.106Z,46.60
2019-03-13T00:44:12.591Z,46.50
2019-03-13T00:44:47.084Z,46.40
2019-03-13T00:45:21.952Z,46.40
2019-03-13T00:45:56.528Z,46.50
2019-03-13T00:46:31.024Z,46.40
2019-03-13T00:47:05.605Z,46.60
2019-03-13T00:47:40.095Z,46.60
2019-03-13T00:48:14.669Z,46.70
2019-03-13T00:48:49.249Z,46.70
2019-03-13T00:49:23.770Z,47.00
2019-03-13T00:49:58.269Z,46.90
2019-03-13T00:50:33.378Z,46.90
2019-03-13T00:51:07.924Z,46.90
2019-03-13T00:51:42.424Z,46.70
2019-03-13T00:52:16.976Z,46.70
2019-03-13T00:52:51.480Z,46.70
2019-03-13T00:53:26.032Z,46.80
2019-03-13T00:54:00.539Z,46.90
2019-03-13T00:54:35.038Z,46.90
2019-03-13T00:55:09.621Z,46.90
2019-03-13T00:55:44.137Z,46.90
2019-03-13T00:56:18.668Z,46.80
2019-03-13T00:56:53.233Z,46.80
2019-03-13T00:57:27.724Z,46.90
2019-03-13T00:58:02.231Z,46.90
2019-03-13T00:58:36.728Z,47.10
2019-03-13T00:59:11.299Z,47.20
2019-03-13T00:59:45.862Z,47.20
2019-03-13T01:00:28.869Z,47.40
2019-03-13T01:01:05.083Z,47.50
2019-03-13T01:01:41.329Z,47.50
2019-03-13T01:02:32.585Z,47.50
2019-03-13T01:03:08.810Z,47.50
2019-03-13T01:03:51.023Z,47.30
2019-03-13T01:04:27.594Z,47.30
2019-03-13T01:05:03.815Z,47.30
2019-03-13T01:05:42.941Z,47.40
2019-03-13T01:06:22.007Z,47.40
2019-03-13T01:06:58.435Z,47.30
2019-03-13T01:07:33.340Z,47.20
2019-03-13T01:08:07.827Z,47.30
2019-03-13T01:08:42.325Z,47.30
2019-03-13T01:09:16.829Z,47.30
2019-03-13T01:09:51.362Z,47.30
2019-03-13T01:10:26.008Z,47.50
2019-03-13T01:11:00.601Z,47.60
2019-03-13T01:11:35.096Z,47.50
2019-03-13T01:12:09.671Z,47.50
2019-03-13T01:12:44.276Z,47.60
2019-03-13T01:13:18.767Z,47.80
2019-03-13T01:13:53.268Z,48.40
2019-03-13T01:14:27.774Z,47.80
2019-03-13T01:15:02.351Z,48.00
2019-03-13T01:15:37.024Z,48.00
2019-03-13T01:16:11.521Z,48.40
2019-03-13T01:16:46.029Z,48.00
2019-03-13T01:17:20.530Z,48.00
2019-03-13T01:17:55.100Z,48.00
2019-03-13T01:18:29.622Z,48.00
2019-03-13T01:19:04.187Z,48.10
2019-03-13T01:19:38.682Z,48.20
2019-03-13T01:20:13.618Z,48.10
2019-03-13T01:20:48.109Z,47.70
2019-03-13T01:21:23.869Z,47.40
2019-03-13T01:21:58.359Z,46.20
2019-03-13T01:22:32.877Z,46.20
2019-03-13T01:23:07.515Z,45.80
2019-03-13T01:23:42.038Z,45.10
2019-03-13T01:24:16.566Z,44.60
2019-03-13T01:24:51.107Z,44.10
2019-03-13T01:25:25.670Z,44.00
2019-03-13T01:26:00.243Z,43.70
2019-03-13T01:26:35.696Z,43.60
2019-03-13T01:27:10.276Z,43.30
2019-03-13T01:27:44.773Z,43.70
2019-03-13T01:28:19.270Z,43.00
2019-03-13T01:28:53.805Z,43.00
2019-03-13T01:29:28.310Z,43.00
2019-03-13T01:30:02.829Z,42.80
2019-03-13T01:30:47.644Z,42.60
2019-03-13T01:31:23.795Z,42.50
2019-03-13T01:32:09.102Z,42.60
2019-03-13T01:32:45.225Z,42.50
2019-03-13T01:33:20.907Z,42.60
2019-03-13T01:33:57.112Z,42.70
2019-03-13T01:34:33.311Z,43.50
2019-03-13T01:35:15.327Z,43.40
2019-03-13T01:35:51.461Z,43.70
2019-03-13T01:36:26.038Z,44.30
2019-03-13T01:37:00.601Z,44.60
2019-03-13T01:37:35.101Z,44.80
2019-03-13T01:38:09.612Z,45.20
2019-03-13T01:38:44.183Z,45.70
2019-03-13T01:39:18.734Z,46.60
2019-03-13T01:39:53.238Z,46.20
2019-03-13T01:40:27.747Z,46.70
2019-03-13T01:41:02.249Z,46.80
2019-03-13T01:41:38.040Z,47.00
2019-03-13T01:42:12.565Z,47.70
2019-03-13T01:42:49.704Z,48.20
2019-03-13T01:43:24.800Z,48.60
2019-03-13T01:43:59.304Z,48.80
2019-03-13T01:44:33.833Z,48.70
2019-03-13T01:45:10.174Z,49.30
2019-03-13T01:45:45.086Z,49.60
2019-03-13T01:46:19.672Z,49.60
2019-03-13T01:46:55.368Z,49.40
2019-03-13T01:47:30.404Z,49.30
2019-03-13T01:48:04.908Z,49.40
2019-03-13T01:48:39.477Z,49.40
2019-03-13T01:49:13.980Z,49.30
2019-03-13T01:49:48.472Z,49.30
2019-03-13T01:50:22.973Z,49.40
2019-03-13T01:50:57.572Z,49.40
2019-03-13T01:51:32.083Z,49.50
2019-03-13T01:52:06.594Z,49.50
2019-03-13T01:52:41.228Z,49.60
2019-03-13T01:53:15.729Z,49.60
2019-03-13T01:53:50.244Z,49.40
2019-03-13T01:54:24.726Z,49.50
2019-03-13T01:54:59.227Z,49.60
2019-03-13T01:55:33.805Z,49.80
2019-03-13T01:56:08.309Z,49.60
2019-03-13T01:56:42.814Z,49.70
2019-03-13T01:57:17.360Z,49.60
2019-03-13T01:57:51.904Z,49.70
2019-03-13T01:58:26.746Z,49.80
2019-03-13T01:59:01.318Z,49.80
2019-03-13T01:59:35.939Z,49.80
2019-03-13T02:00:13.455Z,49.90
2019-03-13T02:00:48.032Z,50.00
2019-03-13T02:01:22.875Z,50.10
2019-03-13T02:01:57.392Z,50.10
2019-03-13T02:02:31.926Z,50.00
2019-03-13T02:03:06.480Z,50.10
2019-03-13T02:03:41.984Z,49.80
2019-03-13T02:04:16.494Z,49.70
2019-03-13T02:04:50.994Z,50.00
2019-03-13T02:05:25.498Z,50.20
2019-03-13T02:05:59.992Z,50.10
2019-03-13T02:06:34.509Z,50.10
2019-03-13T02:07:09.070Z,50.10
2019-03-13T02:07:43.575Z,50.00
2019-03-13T02:08:18.243Z,50.10
2019-03-13T02:08:52.831Z,50.40
2019-03-13T02:09:27.341Z,50.30
2019-03-13T02:10:01.837Z,50.10
2019-03-13T02:10:36.404Z,50.10
2019-03-13T02:11:10.916Z,50.10
2019-03-13T02:11:45.416Z,50.20
2019-03-13T02:12:20.119Z,50.20
2019-03-13T02:12:54.679Z,50.20
2019-03-13T02:13:29.175Z,50.20
2019-03-13T02:14:03.668Z,50.20
2019-03-13T02:14:38.163Z,50.30
2019-03-13T02:15:15.837Z,50.30
2019-03-13T02:15:51.276Z,50.40
2019-03-13T02:16:25.774Z,50.20
2019-03-13T02:17:00.295Z,50.30
2019-03-13T02:17:34.808Z,50.30
2019-03-13T02:18:09.314Z,50.40
2019-03-13T02:18:43.814Z,50.60
2019-03-13T02:19:18.381Z,50.60
2019-03-13T02:19:52.933Z,50.60
2019-03-13T02:20:27.442Z,50.70
2019-03-13T02:21:01.949Z,51.40
2019-03-13T02:21:36.519Z,50.80
2019-03-13T02:22:11.017Z,50.70
2019-03-13T02:22:45.527Z,50.70
2019-03-13T02:23:20.105Z,50.80
2019-03-13T02:23:54.603Z,50.80
2019-03-13T02:24:29.110Z,50.90
2019-03-13T02:25:05.613Z,50.90
2019-03-13T02:25:40.166Z,51.10
2019-03-13T02:26:14.730Z,51.10
2019-03-13T02:26:49.293Z,51.30
2019-03-13T02:27:23.799Z,51.40
2019-03-13T02:27:58.491Z,51.40
2019-03-13T02:28:33.016Z,51.60
2019-03-13T02:29:07.512Z,51.90
2019-03-13T02:29:42.012Z,52.00
2019-03-13T02:30:19.279Z,52.10
2019-03-13T02:30:53.857Z,52.30
2019-03-13T02:31:28.403Z,52.40
2019-03-13T02:32:03.006Z,52.50
2019-03-13T02:32:37.514Z,52.50
2019-03-13T02:33:12.094Z,52.50
2019-03-13T02:33:46.705Z,52.60
2019-03-13T02:34:21.277Z,52.60
2019-03-13T02:34:55.915Z,52.70
2019-03-13T02:35:30.500Z,52.90
2019-03-13T02:36:05.045Z,53.00
2019-03-13T02:36:39.624Z,53.10
2019-03-13T02:37:14.147Z,53.20
2019-03-13T02:37:48.639Z,53.30
2019-03-13T02:38:23.147Z,53.40
2019-03-13T02:38:57.782Z,53.60
2019-03-13T02:39:32.372Z,53.70
2019-03-13T02:40:14.961Z,53.70
2019-03-13T02:40:49.504Z,54.00
2019-03-13T02:41:24.108Z,54.10
2019-03-13T02:41:58.817Z,54.20
2019-03-13T02:42:33.453Z,54.30
2019-03-13T02:43:08.074Z,54.50
2019-03-13T02:43:42.586Z,54.60
2019-03-13T02:44:17.157Z,54.70
2019-03-13T02:44:51.668Z,54.70
2019-03-13T02:45:26.232Z,55.70
2019-03-13T02:46:00.830Z,56.00
2019-03-13T02:46:35.410Z,56.30
2019-03-13T02:47:09.984Z,56.50
2019-03-13T02:47:44.554Z,56.80
2019-03-13T02:48:19.120Z,57.10
2019-03-13T02:48:53.731Z,57.20
2019-03-13T02:49:28.684Z,57.40
2019-03-13T02:50:04.217Z,57.70
2019-03-13T02:50:38.843Z,58.00
2019-03-13T02:51:13.413Z,58.30
2019-03-13T02:51:48.080Z,58.80
2019-03-13T02:52:22.646Z,59.20
2019-03-13T02:52:57.217Z,59.70
2019-03-13T02:53:31.791Z,60.00
2019-03-13T02:54:06.389Z,60.80
2019-03-13T02:54:41.003Z,61.60
2019-03-13T02:55:15.580Z,62.30
2019-03-13T02:55:50.145Z,62.40
2019-03-13T02:56:24.642Z,63.00
2019-03-13T02:56:59.195Z,63.60
2019-03-13T02:57:33.681Z,63.80
2019-03-13T02:58:08.163Z,64.30
2019-03-13T02:58:42.647Z,64.70
2019-03-13T02:59:17.144Z,65.00
2019-03-13T02:59:51.639Z,65.50
2019-03-13T03:00:30.577Z,65.80
2019-03-13T03:01:15.694Z,66.20
2019-03-13T03:01:51.821Z,66.60
2019-03-13T03:02:27.948Z,66.90
2019-03-13T03:03:09.867Z,67.30
2019-03-13T03:03:46.361Z,67.80
2019-03-13T03:04:20.930Z,68.60
2019-03-13T03:04:56.338Z,69.20
2019-03-13T03:05:30.908Z,69.20
2019-03-13T03:06:05.503Z,69.50
2019-03-13T03:06:40.344Z,69.60
2019-03-13T03:07:14.926Z,69.70
2019-03-13T03:07:49.487Z,69.90
2019-03-13T03:08:24.040Z,70.20
2019-03-13T03:08:59.010Z,70.40
2019-03-13T03:09:33.577Z,70.40
2019-03-13T03:10:11.486Z,70.70
2019-03-13T03:10:45.986Z,71.20
2019-03-13T03:11:20.660Z,70.90
2019-03-13T03:11:55.244Z,71.00
2019-03-13T03:12:30.711Z,70.80
2019-03-13T03:13:05.276Z,71.30
2019-03-13T03:13:39.856Z,71.80
2019-03-13T03:14:14.424Z,72.00
2019-03-13T03:15:02.731Z,72.40
2019-03-13T03:15:37.223Z,73.00
2019-03-13T03:16:11.716Z,73.10
2019-03-13T03:16:46.215Z,73.50
2019-03-13T03:17:20.802Z,73.80
2019-03-13T03:17:55.301Z,74.40
2019-03-13T03:18:29.793Z,74.40
2019-03-13T03:19:04.314Z,74.90
2019-03-13T03:19:38.887Z,75.10
2019-03-13T03:20:15.528Z,74.70
2019-03-13T03:20:50.082Z,74.60
2019-03-13T03:21:24.673Z,74.50
2019-03-13T03:21:59.265Z,74.70
2019-03-13T03:22:33.836Z,74.80
2019-03-13T03:23:08.420Z,75.30
2019-03-13T03:23:45.135Z,75.40
2019-03-13T03:24:19.127Z,75.80
2019-03-13T03:24:53.704Z,75.70
2019-03-13T03:25:28.274Z,76.80
2019-03-13T03:26:02.839Z,77.10
2019-03-13T03:26:37.408Z,77.00
2019-03-13T03:27:11.912Z,77.10
2019-03-13T03:27:46.474Z,77.50
2019-03-13T03:28:20.965Z,77.40
2019-03-13T03:28:55.565Z,77.30
2019-03-13T03:29:30.126Z,77.30
2019-03-13T03:30:07.690Z,77.40
2019-03-13T03:30:42.176Z,77.70
2019-03-13T03:31:16.747Z,77.10
2019-03-13T03:31:51.402Z,76.50
2019-03-13T03:32:26.000Z,76.00
2019-03-13T03:33:00.599Z,75.50
2019-03-13T03:33:35.156Z,75.90
2019-03-13T03:34:10.030Z,75.90
2019-03-13T03:34:44.629Z,75.50
2019-03-13T03:35:19.371Z,75.80
2019-03-13T03:35:54.270Z,75.80
2019-03-13T03:36:29.527Z,75.70
2019-03-13T03:37:04.104Z,75.60
2019-03-13T03:37:38.661Z,75.10
2019-03-13T03:38:13.256Z,75.30
2019-03-13T03:38:47.832Z,74.60
2019-03-13T03:39:22.326Z,74.50
2019-03-13T03:39:56.820Z,74.20
2019-03-13T03:40:31.350Z,74.50
2019-03-13T03:41:05.990Z,74.40
2019-03-13T03:41:40.564Z,74.50
2019-03-13T03:42:15.124Z,74.50
2019-03-13T03:42:49.631Z,74.30
2019-03-13T03:43:39.520Z,73.90
2019-03-13T03:44:00.391Z,73.80
2019-03-13T03:44:34.979Z,74.10
2019-03-13T03:45:10.824Z,74.00
2019-03-13T03:45:45.389Z,74.00
2019-03-13T03:46:19.986Z,74.10
2019-03-13T03:46:54.582Z,74.40
2019-03-13T03:47:29.075Z,74.50
2019-03-13T03:48:03.734Z,74.40
2019-03-13T03:48:38.263Z,74.00
2019-03-13T03:49:12.753Z,74.40
2019-03-13T03:49:47.245Z,74.60
2019-03-13T03:50:21.734Z,74.80
2019-03-13T03:50:56.222Z,74.70
2019-03-13T03:51:30.785Z,74.80
2019-03-13T03:52:05.301Z,74.60
2019-03-13T03:52:40.167Z,74.70
2019-03-13T03:53:14.845Z,74.70
2019-03-13T03:53:49.367Z,74.70
2019-03-13T03:54:23.933Z,75.00
2019-03-13T03:54:58.502Z,75.20
2019-03-13T03:55:33.032Z,75.10
2019-03-13T03:56:07.773Z,74.90
2019-03-13T03:56:42.379Z,75.10
2019-03-13T03:57:16.865Z,75.10
2019-03-13T03:57:51.537Z,74.70
2019-03-13T03:58:29.462Z,74.50
2019-03-13T03:59:02.569Z,74.60
2019-03-13T03:59:37.062Z,74.70
2019-03-13T04:00:16.312Z,74.90
2019-03-13T04:00:50.946Z,74.80
2019-03-13T04:01:25.446Z,75.10
2019-03-13T04:02:00.025Z,75.00
2019-03-13T04:02:34.846Z,74.60
2019-03-13T04:03:09.478Z,74.50
2019-03-13T04:03:44.028Z,74.60
2019-03-13T04:04:18.532Z,74.50
2019-03-13T04:04:53.456Z,74.50
2019-03-13T04:05:28.197Z,74.10
2019-03-13T04:06:07.836Z,74.00
2019-03-13T04:06:42.364Z,73.90
2019-03-13T04:07:16.996Z,73.80
2019-03-13T04:07:51.513Z,73.30
2019-03-13T04:08:26.018Z,71.90
2019-03-13T04:09:00.624Z,71.80
2019-03-13T04:09:35.202Z,72.10
2019-03-13T04:10:16.368Z,71.80
2019-03-13T04:10:51.097Z,71.70
2019-03-13T04:11:26.012Z,71.90
2019-03-13T04:12:00.768Z,71.80
2019-03-13T04:12:35.317Z,71.80
2019-03-13T04:13:09.813Z,71.80
2019-03-13T04:13:45.199Z,71.90
2019-03-13T04:14:19.979Z,71.90
2019-03-13T04:14:54.482Z,72.20
2019-03-13T04:15:29.066Z,72.20
2019-03-13T04:16:03.572Z,72.30
2019-03-13T04:16:38.060Z,72.40
2019-03-13T04:17:12.570Z,73.20
2019-03-13T04:17:47.234Z,72.60
2019-03-13T04:18:21.806Z,72.70
2019-03-13T04:18:56.284Z,72.70
2019-03-13T04:19:31.073Z,72.60
2019-03-13T04:20:15.765Z,73.30
2019-03-13T04:20:50.272Z,72.60
2019-03-13T04:21:25.221Z,72.70
2019-03-13T04:21:59.801Z,72.90
2019-03-13T04:22:34.476Z,72.60
2019-03-13T04:23:09.358Z,72.90
2019-03-13T04:23:43.940Z,72.80
2019-03-13T04:24:18.519Z,72.90
2019-03-13T04:24:53.541Z,73.20
2019-03-13T04:25:31.926Z,72.80
2019-03-13T04:26:06.663Z,72.60
2019-03-13T04:26:42.898Z,72.40
2019-03-13T04:27:17.485Z,72.40
2019-03-13T04:27:52.047Z,73.10
2019-03-13T04:28:26.622Z,72.30
2019-03-13T04:29:01.225Z,72.10
2019-03-13T04:29:35.789Z,72.30
2019-03-13T04:30:12.128Z,72.20
2019-03-13T04:30:46.629Z,72.30
2019-03-13T04:31:21.229Z,72.60
2019-03-13T04:31:55.733Z,72.70
2019-03-13T04:32:30.292Z,72.60
2019-03-13T04:33:04.865Z,72.60
2019-03-13T04:33:39.353Z,72.50
2019-03-13T04:34:13.846Z,72.70
2019-03-13T04:34:48.397Z,72.60
2019-03-13T04:35:23.018Z,72.60
2019-03-13T04:35:57.534Z,72.60
2019-03-13T04:36:32.043Z,72.50
2019-03-13T04:37:06.560Z,72.60
2019-03-13T04:37:41.121Z,72.70
2019-03-13T04:38:15.644Z,72.80
2019-03-13T04:38:50.166Z,72.90
2019-03-13T04:39:24.751Z,72.70
2019-03-13T04:39:59.248Z,72.80
2019-03-13T04:40:33.736Z,72.80
2019-03-13T04:41:08.299Z,72.90
2019-03-13T04:41:42.802Z,72.80
2019-03-13T04:42:17.301Z,72.80
2019-03-13T04:42:52.181Z,72.80
2019-03-13T04:43:26.694Z,72.50
2019-03-13T04:44:01.190Z,72.30
2019-03-13T04:44:35.682Z,72.40
2019-03-13T04:45:11.465Z,72.20
2019-03-13T04:45:46.032Z,72.30
2019-03-13T04:46:20.646Z,72.40
2019-03-13T04:46:55.230Z,73.00
2019-03-13T04:47:29.810Z,72.50
2019-03-13T04:48:04.551Z,72.20
2019-03-13T04:48:39.082Z,72.30
2019-03-13T04:49:13.684Z,72.50
2019-03-13T04:49:48.194Z,72.60
2019-03-13T04:50:22.693Z,72.60
2019-03-13T04:51:00.081Z,72.70
2019-03-13T04:51:34.646Z,72.70
2019-03-13T04:52:09.133Z,72.30
2019-03-13T04:52:43.873Z,72.30
2019-03-13T04:53:18.403Z,72.40
2019-03-13T04:53:53.033Z,72.50
2019-03-13T04:54:27.561Z,72.50
2019-03-13T04:55:02.336Z,72.30
2019-03-13T04:55:36.897Z,71.90
2019-03-13T04:56:11.393Z,71.60
2019-03-13T04:56:51.674Z,71.80
2019-03-13T04:57:26.241Z,72.10
2019-03-13T04:58:00.755Z,72.20
2019-03-13T04:58:35.429Z,72.20
2019-03-13T04:59:09.939Z,72.10
2019-03-13T04:59:44.435Z,71.80
2019-03-13T05:00:20.190Z,72.00
2019-03-13T05:00:54.752Z,72.00
2019-03-13T05:01:29.239Z,72.10
2019-03-13T05:02:03.724Z,72.20
2019-03-13T05:02:38.225Z,72.30
2019-03-13T05:03:12.845Z,72.60
2019-03-13T05:03:47.427Z,72.50
2019-03-13T05:04:21.997Z,72.60
2019-03-13T05:04:56.968Z,72.50
2019-03-13T05:05:37.490Z,72.60
2019-03-13T05:06:15.139Z,72.70
2019-03-13T05:06:49.672Z,72.80
2019-03-13T05:07:24.274Z,72.60
2019-03-13T05:07:59.001Z,72.60
2019-03-13T05:08:44.908Z,72.70
2019-03-13T05:09:12.722Z,72.90
2019-03-13T05:09:47.293Z,73.10
2019-03-13T05:10:21.810Z,73.30
2019-03-13T05:10:56.450Z,73.60
2019-03-13T05:11:31.008Z,73.50
2019-03-13T05:12:05.530Z,73.50
2019-03-13T05:12:40.081Z,73.70
2019-03-13T05:13:14.657Z,73.90
2019-03-13T05:13:49.247Z,73.90
2019-03-13T05:14:23.833Z,73.90
2019-03-13T05:14:58.350Z,74.00
2019-03-13T05:15:32.880Z,74.00
2019-03-13T05:16:07.446Z,74.00
2019-03-13T05:16:41.932Z,74.00
2019-03-13T05:17:16.432Z,74.10
2019-03-13T05:17:50.953Z,74.30
2019-03-13T05:18:25.488Z,74.50
2019-03-13T05:18:59.991Z,74.60
2019-03-13T05:19:34.476Z,74.40
2019-03-13T05:20:09.117Z,74.50
2019-03-13T05:20:45.429Z,74.70
2019-03-13T05:21:19.990Z,74.80
2019-03-13T05:21:54.481Z,75.00
2019-03-13T05:22:29.194Z,74.80
2019-03-13T05:23:03.684Z,75.00
2019-03-13T05:23:38.299Z,75.00
2019-03-13T05:24:12.934Z,75.10
2019-03-13T05:24:47.438Z,75.20
2019-03-13T05:25:21.940Z,75.10
2019-03-13T05:25:56.439Z,75.20
2019-03-13T05:26:30.963Z,75.30
2019-03-13T05:27:05.540Z,75.40
2019-03-13T05:27:40.133Z,75.40
2019-03-13T05:28:14.697Z,75.50
2019-03-13T05:28:49.244Z,75.30
2019-03-13T05:29:23.764Z,75.20
2019-03-13T05:29:58.274Z,75.40
2019-03-13T05:30:32.766Z,75.60
2019-03-13T05:31:07.271Z,75.60
2019-03-13T05:31:41.829Z,75.60
2019-03-13T05:32:16.351Z,75.70
2019-03-13T05:32:50.912Z,75.60
2019-03-13T05:33:25.465Z,75.60
2019-03-13T05:33:59.973Z,75.50
2019-03-13T05:34:34.537Z,75.50
2019-03-13T05:35:09.190Z,75.40
2019-03-13T05:35:43.757Z,75.50
2019-03-13T05:36:18.264Z,75.50
2019-03-13T05:36:52.823Z,75.40
2019-03-13T05:37:27.320Z,75.50
2019-03-13T05:38:01.922Z,75.50
2019-03-13T05:38:36.490Z,75.40
2019-03-13T05:39:10.985Z,75.50
2019-03-13T05:39:45.507Z,75.50
2019-03-13T05:40:20.343Z,75.60
2019-03-13T05:40:54.930Z,75.50
2019-03-13T05:41:29.456Z,75.20
2019-03-13T05:42:04.019Z,75.30
2019-03-13T05:42:38.511Z,75.40
2019-03-13T05:43:13.076Z,75.50
2019-03-13T05:43:47.593Z,75.70
2019-03-13T05:44:22.094Z,75.60
2019-03-13T05:44:56.601Z,75.40
2019-03-13T05:45:31.101Z,75.50
2019-03-13T05:46:05.610Z,75.40
2019-03-13T05:46:40.176Z,75.10
2019-03-13T05:47:14.666Z,75.00
2019-03-13T05:47:49.181Z,75.40
2019-03-13T05:48:23.682Z,75.60
2019-03-13T05:48:58.209Z,75.40
2019-03-13T05:49:32.712Z,75.40
2019-03-13T05:50:10.008Z,75.50
2019-03-13T05:50:44.575Z,75.40
2019-03-13T05:51:19.085Z,75.40
2019-03-13T05:51:53.592Z,75.70
2019-03-13T05:52:28.147Z,75.70
2019-03-13T05:53:02.637Z,75.60
2019-03-13T05:53:38.091Z,75.80
2019-03-13T05:54:12.596Z,75.90
2019-03-13T05:54:47.117Z,75.80
2019-03-13T05:55:21.708Z,75.90
2019-03-13T05:55:56.370Z,76.20
2019-03-13T05:56:30.860Z,76.60
2019-03-13T05:57:05.348Z,76.80
2019-03-13T05:57:39.857Z,77.10
2019-03-13T05:58:14.646Z,77.30
2019-03-13T05:58:49.155Z,77.30
2019-03-13T05:59:23.697Z,77.40
2019-03-13T05:59:58.843Z,77.60
2019-03-13T06:00:33.415Z,77.80
2019-03-13T06:01:07.920Z,77.60
2019-03-13T06:01:42.411Z,77.80
2019-03-13T06:02:16.976Z,78.00
2019-03-13T06:02:51.520Z,78.20
2019-03-13T06:03:26.115Z,78.10
2019-03-13T06:04:00.691Z,78.00
2019-03-13T06:04:35.249Z,78.80
2019-03-13T06:05:10.372Z,78.30
2019-03-13T06:05:44.968Z,78.40
2019-03-13T06:06:19.494Z,78.40
2019-03-13T06:06:53.979Z,78.30
2019-03-13T06:07:28.460Z,78.40
2019-03-13T06:08:03.238Z,78.50
2019-03-13T06:08:37.893Z,78.80
2019-03-13T06:09:12.458Z,78.40
2019-03-13T06:09:47.052Z,78.80
2019-03-13T06:10:21.617Z,79.20
2019-03-13T06:10:56.122Z,79.30
2019-03-13T06:11:30.689Z,79.40
2019-03-13T06:12:05.202Z,80.00
2019-03-13T06:12:39.958Z,80.60
2019-03-13T06:13:14.458Z,81.20
2019-03-13T06:13:48.970Z,82.60
2019-03-13T06:14:23.478Z,83.40
2019-03-13T06:14:57.989Z,84.00
2019-03-13T06:15:32.500Z,84.40
2019-03-13T06:16:07.001Z,84.80
2019-03-13T06:16:41.578Z,85.30
2019-03-13T06:17:16.173Z,85.60
2019-03-13T06:17:50.769Z,85.90
2019-03-13T06:18:25.319Z,86.40
2019-03-13T06:18:59.849Z,86.60
2019-03-13T06:19:34.403Z,86.80
2019-03-13T06:20:12.045Z,86.90
2019-03-13T06:20:46.552Z,87.30
2019-03-13T06:21:21.115Z,87.60
2019-03-13T06:21:55.608Z,88.00
2019-03-13T06:22:30.173Z,88.20
2019-03-13T06:23:04.759Z,88.40
2019-03-13T06:23:39.277Z,88.70
2019-03-13T06:24:13.804Z,89.10
2019-03-13T06:24:48.374Z,89.40
2019-03-13T06:25:22.963Z,89.70
2019-03-13T06:25:57.451Z,89.70
2019-03-13T06:26:38.930Z,89.90
2019-03-13T06:27:13.511Z,90.00
2019-03-13T06:27:48.035Z,90.10
2019-03-13T06:28:22.603Z,90.00
2019-03-13T06:28:57.107Z,90.10
2019-03-13T06:29:32.038Z,90.20
2019-03-13T06:30:12.210Z,90.10
2019-03-13T06:30:46.779Z,90.20
2019-03-13T06:31:21.356Z,90.20
2019-03-13T06:31:55.861Z,90.00
2019-03-13T06:32:30.769Z,89.90
2019-03-13T06:33:05.278Z,90.10
2019-03-13T06:33:39.777Z,90.20
2019-03-13T06:34:14.302Z,90.20
2019-03-13T06:34:48.821Z,90.40
2019-03-13T06:35:24.042Z,90.50
2019-03-13T06:35:58.793Z,90.60
2019-03-13T06:36:33.296Z,90.70
2019-03-13T06:37:07.782Z,90.70
2019-03-13T06:37:42.567Z,90.80
2019-03-13T06:38:17.066Z,90.90
2019-03-13T06:38:51.645Z,91.10
2019-03-13T06:39:26.219Z,91.50
2019-03-13T06:40:00.780Z,91.40
2019-03-13T06:40:35.286Z,91.50
2019-03-13T06:41:09.863Z,91.70
2019-03-13T06:41:44.489Z,91.80
2019-03-13T06:42:19.102Z,91.70
2019-03-13T06:42:53.599Z,92.00
2019-03-13T06:43:28.417Z,91.90
2019-03-13T06:44:03.000Z,92.10
2019-03-13T06:44:37.524Z,92.30
2019-03-13T06:45:15.108Z,92.20
2019-03-13T06:45:49.897Z,92.20
2019-03-13T06:46:24.385Z,92.30
2019-03-13T06:46:58.902Z,92.40
2019-03-13T06:47:33.729Z,92.50
2019-03-13T06:48:08.411Z,92.50
2019-03-13T06:48:43.010Z,92.40
2019-03-13T06:49:17.851Z,92.40
2019-03-13T06:49:52.422Z,92.40
2019-03-13T06:50:26.928Z,92.30
2019-03-13T06:51:01.484Z,92.40
2019-03-13T06:51:35.978Z,92.20
2019-03-13T06:52:10.536Z,92.20
2019-03-13T06:52:45.048Z,92.40
2019-03-13T06:53:19.609Z,92.30
2019-03-13T06:53:54.126Z,92.40
2019-03-13T06:54:28.674Z,92.30
2019-03-13T06:55:03.529Z,92.40
2019-03-13T06:55:38.023Z,92.40
2019-03-13T06:56:12.580Z,92.60
2019-03-13T06:56:47.081Z,92.80
2019-03-13T06:57:21.556Z,92.70
2019-03-13T06:57:56.057Z,92.60
2019-03-13T06:58:32.293Z,92.60
2019-03-13T06:59:08.476Z,92.50
2019-03-13T07:00:00.394Z,92.40
2019-03-13T07:00:39.546Z,92.50
2019-03-13T07:01:33.713Z,92.40
2019-03-13T07:02:18.700Z,92.50
2019-03-13T07:03:00.669Z,92.40
2019-03-13T07:03:39.541Z,92.40
2019-03-13T07:04:21.034Z,92.30
2019-03-13T07:04:56.093Z,92.30
2019-03-13T07:05:32.299Z,92.20
2019-03-13T07:06:08.437Z,92.10
2019-03-13T07:06:47.213Z,92.10
2019-03-13T07:07:38.259Z,92.20
2019-03-13T07:08:23.334Z,92.10
2019-03-13T07:09:11.293Z,91.90
2019-03-13T07:09:47.451Z,91.80
2019-03-13T07:10:26.220Z,91.50
2019-03-13T07:11:11.318Z,91.60
2019-03-13T07:11:50.391Z,91.70
2019-03-13T07:12:32.309Z,91.80
2019-03-13T07:13:14.696Z,91.80
2019-03-13T07:14:03.117Z,91.60
2019-03-13T07:14:48.488Z,91.70
2019-03-13T07:15:24.660Z,91.50
2019-03-13T07:16:03.229Z,91.50
2019-03-13T07:16:48.382Z,91.30
2019-03-13T07:17:33.285Z,91.20
2019-03-13T07:18:09.473Z,91.20
2019-03-13T07:18:45.630Z,91.00
2019-03-13T07:19:38.004Z,90.90
2019-03-13T07:20:14.230Z,90.80
2019-03-13T07:20:59.160Z,90.50
2019-03-13T07:21:38.234Z,90.40
2019-03-13T07:22:20.547Z,90.50
2019-03-13T07:23:02.266Z,90.50
2019-03-13T07:23:44.504Z,90.40
2019-03-13T07:24:37.294Z,90.40
2019-03-13T07:25:28.480Z,90.20
2019-03-13T07:26:10.604Z,90.30
2019-03-13T07:26:55.925Z,90.30
2019-03-13T07:27:44.256Z,90.00
2019-03-13T07:28:22.832Z,89.70
2019-03-13T07:29:15.434Z,90.10
2019-03-13T07:29:57.786Z,90.10
2019-03-13T07:30:49.203Z,90.10
2019-03-13T07:31:25.750Z,90.00
2019-03-13T07:32:01.902Z,90.10
2019-03-13T07:32:56.719Z,89.60
2019-03-13T07:33:44.967Z,89.40
2019-03-13T07:34:39.048Z,89.30
2019-03-13T07:35:15.187Z,88.20
2019-03-13T07:35:57.184Z,88.40
2019-03-13T07:36:51.361Z,87.70
2019-03-13T07:37:27.523Z,87.50
2019-03-13T07:38:19.691Z,88.10